Voss, Texas
Current Conditions -  °F | °C
As of 7:35 AM on Saturday 20 Dec 2014 (Local Time) from KCOM Reporting Station
Overcast Overcast  
Wind Chill: 46°   Ceiling: 1800
Heat Index: 46°   Visibility: 10mi
Dew Point: 44°   Wind: 3mph
Humidity: 95%   Direction: 100°E
Pressure: 30.2"   Gusts: NA
Location:  31.62°N, 99.56°W
Report Text: KCOM 201335Z AUTO 10003KT 10SM SCT007 OVC018 08/07 A3020 RMK AO2 T00750067
Loading
Personal Weather Stations






























Interactive Weather Map New forecast layout! Learn more

10-Day Weather Forecast

Advertisements
Track Severe Weather on mobile